createdAt,value
2019-03-29T00:00:17.598Z,6.87
2019-03-29T00:01:17.558Z,6.94
2019-03-29T00:02:17.626Z,6.95
2019-03-29T00:03:17.619Z,6.94
2019-03-29T00:04:17.649Z,6.96
2019-03-29T00:05:19.241Z,6.93
2019-03-29T00:06:17.682Z,6.93
2019-03-29T00:07:17.620Z,6.92
2019-03-29T00:08:17.585Z,6.96
2019-03-29T00:09:17.559Z,6.92
2019-03-29T00:10:17.577Z,6.96
2019-03-29T00:11:17.577Z,6.98
2019-03-29T00:12:18.827Z,6.92
2019-03-29T00:13:17.639Z,6.98
2019-03-29T00:14:17.713Z,6.97
2019-03-29T00:15:18.553Z,6.92
2019-03-29T00:16:17.556Z,6.9
2019-03-29T00:17:18.563Z,6.84
2019-03-29T00:18:17.557Z,6.91
2019-03-29T00:19:17.619Z,6.87
2019-03-29T00:20:17.595Z,6.84
2019-03-29T00:21:17.547Z,6.84
2019-03-29T00:22:17.627Z,6.82
2019-03-29T00:23:17.631Z,6.97
2019-03-29T00:24:17.585Z,6.97
2019-03-29T00:25:17.582Z,6.92
2019-03-29T00:26:17.716Z,6.86
2019-03-29T00:27:19.102Z,6.85
2019-03-29T00:28:17.522Z,6.93
2019-03-29T00:29:17.560Z,6.86
2019-03-29T00:30:17.637Z,6.87
2019-03-29T00:31:17.566Z,6.81
2019-03-29T00:32:17.610Z,6.79
2019-03-29T00:33:17.519Z,6.81
2019-03-29T00:34:17.515Z,6.8
2019-03-29T00:35:18.429Z,6.8
2019-03-29T00:36:17.686Z,6.76
2019-03-29T00:37:18.410Z,6.76
2019-03-29T00:38:17.545Z,6.83
2019-03-29T00:39:17.599Z,6.76
2019-03-29T00:40:17.558Z,6.83
2019-03-29T00:41:17.509Z,6.81
2019-03-29T00:42:18.510Z,6.77
2019-03-29T00:43:17.572Z,6.75
2019-03-29T00:44:17.531Z,6.78
2019-03-29T00:45:19.417Z,6.81
2019-03-29T00:46:17.576Z,6.86
2019-03-29T00:47:17.528Z,6.79
2019-03-29T00:48:17.516Z,6.81
2019-03-29T00:49:17.566Z,6.83
2019-03-29T00:50:17.573Z,6.82
2019-03-29T00:51:17.762Z,6.79
2019-03-29T00:52:17.487Z,6.82
2019-03-29T00:53:17.508Z,6.78
2019-03-29T00:54:17.514Z,6.82
2019-03-29T00:55:17.575Z,6.78
2019-03-29T00:56:17.536Z,6.74
2019-03-29T00:57:17.700Z,6.73
2019-03-29T00:58:17.515Z,6.71
2019-03-29T00:59:17.546Z,6.85
2019-03-29T01:00:17.521Z,6.76
2019-03-29T01:01:17.471Z,6.73
2019-03-29T01:02:19.494Z,6.82
2019-03-29T01:03:17.502Z,6.73
2019-03-29T01:04:17.467Z,6.78
2019-03-29T01:05:17.463Z,6.81
2019-03-29T01:06:17.474Z,6.76
2019-03-29T01:07:17.616Z,6.81
2019-03-29T01:08:17.492Z,6.88
2019-03-29T01:09:17.487Z,6.83
2019-03-29T01:10:17.465Z,6.81
2019-03-29T01:11:17.474Z,6.82
2019-03-29T01:12:17.530Z,6.78
2019-03-29T01:13:17.511Z,6.79
2019-03-29T01:14:17.501Z,6.72
2019-03-29T01:15:17.621Z,6.81
2019-03-29T01:16:17.447Z,6.77
2019-03-29T01:17:17.462Z,6.81
2019-03-29T01:18:17.769Z,6.82
2019-03-29T01:19:17.664Z,6.78
2019-03-29T01:20:17.515Z,6.81
2019-03-29T01:21:17.562Z,6.74
2019-03-29T01:22:17.509Z,6.8
2019-03-29T01:23:17.430Z,6.78
2019-03-29T01:24:17.515Z,6.86
2019-03-29T01:25:17.444Z,6.77
2019-03-29T01:26:17.605Z,6.73
2019-03-29T01:27:17.461Z,6.77
2019-03-29T01:28:17.459Z,6.83
2019-03-29T01:29:17.472Z,6.86
2019-03-29T01:30:18.837Z,6.79
2019-03-29T01:31:17.712Z,6.8
2019-03-29T01:32:17.456Z,6.85
2019-03-29T01:33:17.623Z,6.91
2019-03-29T01:34:17.518Z,6.9
2019-03-29T01:35:17.486Z,6.87
2019-03-29T01:36:17.459Z,6.8
2019-03-29T01:37:17.465Z,6.77
2019-03-29T01:38:24.845Z,6.84
2019-03-29T01:39:17.521Z,6.81
2019-03-29T01:40:17.574Z,6.8
2019-03-29T01:41:17.451Z,6.85
2019-03-29T01:42:19.351Z,6.87
2019-03-29T01:43:17.458Z,6.83
2019-03-29T01:44:18.316Z,6.8
2019-03-29T01:45:17.537Z,6.85
2019-03-29T01:46:17.435Z,6.8
2019-03-29T01:47:17.425Z,6.83
2019-03-29T01:48:17.472Z,6.89
2019-03-29T01:49:17.625Z,6.86
2019-03-29T01:50:17.390Z,6.83
2019-03-29T01:51:17.493Z,6.84
2019-03-29T01:52:17.403Z,6.88
2019-03-29T01:53:17.420Z,6.82
2019-03-29T01:54:17.450Z,6.84
2019-03-29T01:55:17.477Z,6.85
2019-03-29T01:56:17.542Z,6.86
2019-03-29T01:57:17.441Z,6.84
2019-03-29T01:58:17.390Z,6.83
2019-03-29T01:59:17.472Z,6.83
2019-03-29T02:00:17.674Z,6.82
2019-03-29T02:01:17.451Z,6.79
2019-03-29T02:02:17.600Z,6.74
2019-03-29T02:03:17.368Z,6.79
2019-03-29T02:04:17.426Z,6.75
2019-03-29T02:05:17.487Z,6.8
2019-03-29T02:06:17.565Z,6.74
2019-03-29T02:07:17.435Z,6.68
2019-03-29T02:08:17.427Z,6.65
2019-03-29T02:09:17.416Z,6.65
2019-03-29T02:10:17.486Z,6.7
2019-03-29T02:11:17.580Z,6.71
2019-03-29T02:12:17.407Z,6.73
2019-03-29T02:13:17.398Z,6.68
2019-03-29T02:14:18.492Z,6.71
2019-03-29T02:15:17.439Z,6.73
2019-03-29T02:16:17.370Z,6.72
2019-03-29T02:17:17.416Z,6.73
2019-03-29T02:18:17.389Z,6.67
2019-03-29T02:19:17.457Z,6.68
2019-03-29T02:20:17.383Z,6.63
2019-03-29T02:21:17.490Z,6.69
2019-03-29T02:22:17.424Z,6.66
2019-03-29T02:23:17.485Z,6.63
2019-03-29T02:24:17.511Z,6.63
2019-03-29T02:25:17.500Z,6.71
2019-03-29T02:26:17.399Z,6.76
2019-03-29T02:27:17.380Z,6.71
2019-03-29T02:28:19.352Z,6.8
2019-03-29T02:29:17.367Z,6.75
2019-03-29T02:30:17.359Z,6.79
2019-03-29T02:31:17.473Z,6.82
2019-03-29T02:32:18.068Z,6.8
2019-03-29T02:33:17.422Z,6.8
2019-03-29T02:34:17.416Z,6.77
2019-03-29T02:35:17.513Z,6.77
2019-03-29T02:36:17.420Z,6.72
2019-03-29T02:37:17.371Z,6.76
2019-03-29T02:38:17.410Z,6.77
2019-03-29T02:39:17.665Z,6.71
2019-03-29T02:40:17.479Z,6.72
2019-03-29T02:41:19.921Z,6.7
2019-03-29T02:42:17.373Z,6.67
2019-03-29T02:43:17.598Z,6.66
2019-03-29T02:44:17.599Z,6.65
2019-03-29T02:45:17.758Z,6.65
2019-03-29T02:46:17.383Z,6.77
2019-03-29T02:47:17.406Z,6.74
2019-03-29T02:48:17.605Z,6.81
2019-03-29T02:49:17.374Z,6.72
2019-03-29T02:50:17.399Z,6.79
2019-03-29T02:51:17.472Z,6.8
2019-03-29T02:52:17.329Z,6.81
2019-03-29T02:53:17.441Z,6.84
2019-03-29T02:54:17.392Z,6.77
2019-03-29T02:55:17.392Z,6.72
2019-03-29T02:56:17.453Z,6.8
2019-03-29T02:57:17.510Z,6.77
2019-03-29T02:58:17.376Z,6.74
2019-03-29T02:59:17.343Z,6.78
2019-03-29T03:00:17.367Z,6.78
2019-03-29T03:01:17.337Z,6.73
2019-03-29T03:02:17.403Z,6.72
2019-03-29T03:03:17.365Z,6.78
2019-03-29T03:04:17.448Z,6.77
2019-03-29T03:05:17.349Z,6.76
2019-03-29T03:06:17.881Z,6.75
2019-03-29T03:07:17.365Z,6.73
2019-03-29T03:08:17.365Z,6.75
2019-03-29T03:09:17.357Z,6.69
2019-03-29T03:10:17.413Z,6.71
2019-03-29T03:11:17.387Z,6.71
2019-03-29T03:12:18.722Z,6.73
2019-03-29T03:13:17.349Z,6.74
2019-03-29T03:14:17.406Z,6.7
2019-03-29T03:15:17.367Z,6.74
2019-03-29T03:16:17.321Z,6.72
2019-03-29T03:17:17.356Z,6.71
2019-03-29T03:18:17.428Z,6.66
2019-03-29T03:19:17.343Z,6.65
2019-03-29T03:20:17.320Z,6.69
2019-03-29T03:21:17.538Z,6.69
2019-03-29T03:22:17.337Z,6.69
2019-03-29T03:23:17.492Z,6.7
2019-03-29T03:24:17.354Z,6.64
2019-03-29T03:25:17.450Z,6.67
2019-03-29T03:26:17.334Z,6.62
2019-03-29T03:27:17.339Z,6.61
2019-03-29T03:28:17.435Z,6.64
2019-03-29T03:29:17.344Z,6.61
2019-03-29T03:30:17.428Z,6.62
2019-03-29T03:31:17.482Z,6.66
2019-03-29T03:32:17.478Z,6.63
2019-03-29T03:33:17.383Z,6.65
2019-03-29T03:34:17.362Z,6.59
2019-03-29T03:35:17.422Z,6.56
2019-03-29T03:36:17.366Z,6.54
2019-03-29T03:37:17.350Z,6.53
2019-03-29T03:38:17.350Z,6.58
2019-03-29T03:39:32.894Z,6.64
2019-03-29T03:40:17.353Z,6.59
2019-03-29T03:41:17.286Z,6.56
2019-03-29T03:42:17.364Z,6.52
2019-03-29T03:43:17.267Z,6.6
2019-03-29T03:44:17.299Z,6.58
2019-03-29T03:45:17.283Z,6.56
2019-03-29T03:46:17.315Z,6.69
2019-03-29T03:47:17.264Z,6.68
2019-03-29T03:48:17.319Z,6.7
2019-03-29T03:49:17.257Z,6.69
2019-03-29T03:50:17.316Z,6.69
2019-03-29T03:51:17.256Z,6.61
2019-03-29T03:52:19.728Z,6.6
2019-03-29T03:53:17.242Z,6.55
2019-03-29T03:54:17.298Z,6.55
2019-03-29T03:55:17.268Z,6.53
2019-03-29T03:56:17.233Z,6.53
2019-03-29T03:57:17.258Z,6.59
2019-03-29T03:58:17.273Z,6.55
2019-03-29T03:59:17.280Z,6.58
2019-03-29T04:00:17.514Z,6.54
2019-03-29T04:01:17.261Z,6.59
2019-03-29T04:02:17.266Z,6.61
2019-03-29T04:03:17.269Z,6.6
2019-03-29T04:04:17.294Z,6.58
2019-03-29T04:05:17.335Z,6.55
2019-03-29T04:06:17.313Z,6.55
2019-03-29T04:07:17.284Z,6.54
2019-03-29T04:08:17.316Z,6.51
2019-03-29T04:09:17.344Z,6.49
2019-03-29T04:10:17.266Z,6.5
2019-03-29T04:11:17.667Z,6.47
2019-03-29T04:12:18.350Z,6.47
2019-03-29T04:13:17.268Z,6.44
2019-03-29T04:14:17.255Z,6.42
2019-03-29T04:15:17.264Z,6.4
2019-03-29T04:16:17.440Z,6.45
2019-03-29T04:17:18.150Z,6.47
2019-03-29T04:18:17.348Z,6.47
2019-03-29T04:19:17.387Z,6.46
2019-03-29T04:20:17.254Z,6.45
2019-03-29T04:21:17.427Z,6.45
2019-03-29T04:22:17.266Z,6.46
2019-03-29T04:23:18.298Z,6.45
2019-03-29T04:24:17.448Z,6.48
2019-03-29T04:25:17.320Z,6.46
2019-03-29T04:26:17.208Z,6.45
2019-03-29T04:27:17.258Z,6.45
2019-03-29T04:28:17.251Z,6.44
2019-03-29T04:29:17.283Z,6.43
2019-03-29T04:30:17.208Z,6.44
2019-03-29T04:31:17.360Z,6.42
2019-03-29T04:32:17.201Z,6.41
2019-03-29T04:33:17.310Z,6.42
2019-03-29T04:34:17.267Z,6.39
2019-03-29T04:35:17.269Z,6.42
2019-03-29T04:36:18.650Z,6.4
2019-03-29T04:37:17.198Z,6.39
2019-03-29T04:38:17.217Z,6.36
2019-03-29T04:39:17.215Z,6.36
2019-03-29T04:40:17.215Z,6.36
2019-03-29T04:41:17.213Z,6.38
2019-03-29T04:42:17.190Z,6.36
2019-03-29T04:43:17.260Z,6.35
2019-03-29T04:44:17.183Z,6.32
2019-03-29T04:45:17.227Z,6.35
2019-03-29T04:46:17.229Z,6.31
2019-03-29T04:47:17.224Z,6.34
2019-03-29T04:48:17.342Z,6.34
2019-03-29T04:49:17.146Z,6.34
2019-03-29T04:50:17.141Z,6.34
2019-03-29T04:51:17.173Z,6.32
2019-03-29T04:52:17.201Z,6.35
2019-03-29T04:53:17.246Z,6.33
2019-03-29T04:54:17.571Z,6.29
2019-03-29T04:55:17.240Z,6.3
2019-03-29T04:56:17.343Z,6.28
2019-03-29T04:57:17.266Z,6.27
2019-03-29T04:58:17.158Z,6.25
2019-03-29T04:59:17.159Z,6.27
2019-03-29T05:00:17.167Z,6.27
2019-03-29T05:01:17.794Z,6.27
2019-03-29T05:02:17.287Z,6.26
2019-03-29T05:03:17.155Z,6.25
2019-03-29T05:04:17.295Z,6.25
2019-03-29T05:05:17.237Z,6.24
2019-03-29T05:06:17.133Z,6.21
2019-03-29T05:07:17.210Z,6.26
2019-03-29T05:08:17.143Z,6.21
2019-03-29T05:09:17.168Z,6.23
2019-03-29T05:10:22.224Z,6.21
2019-03-29T05:11:17.170Z,6.26
2019-03-29T05:12:17.115Z,6.23
2019-03-29T05:13:17.172Z,6.26
2019-03-29T05:14:17.125Z,6.25
2019-03-29T05:15:17.115Z,6.25
2019-03-29T05:16:17.768Z,6.2
2019-03-29T05:17:17.156Z,6.21
2019-03-29T05:18:17.189Z,6.21
2019-03-29T05:19:17.249Z,6.2
2019-03-29T05:20:17.118Z,6.24
2019-03-29T05:21:17.142Z,6.24
2019-03-29T05:22:17.146Z,6.24
2019-03-29T05:23:17.121Z,6.2
2019-03-29T05:24:17.127Z,6.25
2019-03-29T05:25:17.292Z,6.26
2019-03-29T05:26:17.099Z,6.26
2019-03-29T05:27:17.170Z,6.27
2019-03-29T05:28:17.137Z,6.26
2019-03-29T05:29:17.178Z,6.27
2019-03-29T05:30:17.160Z,6.26
2019-03-29T05:31:17.153Z,6.23
2019-03-29T05:32:18.215Z,6.2
2019-03-29T05:33:17.142Z,6.26
2019-03-29T05:34:17.133Z,6.23
2019-03-29T05:35:17.130Z,6.21
2019-03-29T05:36:17.147Z,6.21
2019-03-29T05:37:17.107Z,6.22
2019-03-29T05:38:17.337Z,6.19
2019-03-29T05:39:17.078Z,6.34
2019-03-29T05:40:17.136Z,6.3
2019-03-29T05:41:17.122Z,6.33
2019-03-29T05:42:17.087Z,6.31
2019-03-29T05:43:17.188Z,6.32
2019-03-29T05:44:17.118Z,6.27
2019-03-29T05:45:17.113Z,6.29
2019-03-29T05:46:17.187Z,6.28
2019-03-29T05:47:17.149Z,6.24
2019-03-29T05:48:17.106Z,6.3
2019-03-29T05:49:17.159Z,6.24
2019-03-29T05:50:17.069Z,6.24
2019-03-29T05:51:17.115Z,6.22
2019-03-29T05:52:17.097Z,6.22
2019-03-29T05:53:18.473Z,6.22
2019-03-29T05:54:17.186Z,6.28
2019-03-29T05:55:17.157Z,6.25
2019-03-29T05:56:17.073Z,6.28
2019-03-29T05:57:17.134Z,6.24
2019-03-29T05:58:17.097Z,6.27
2019-03-29T05:59:17.328Z,6.33
2019-03-29T06:00:17.209Z,6.31
2019-03-29T06:01:17.164Z,6.33
2019-03-29T06:02:17.044Z,6.32
2019-03-29T06:03:17.104Z,6.35
2019-03-29T06:04:17.192Z,6.39
2019-03-29T06:05:17.044Z,6.42
2019-03-29T06:06:17.069Z,6.46
2019-03-29T06:07:17.111Z,6.48
2019-03-29T06:08:17.076Z,6.51
2019-03-29T06:09:17.111Z,6.63
2019-03-29T06:10:17.052Z,6.68
2019-03-29T06:11:17.180Z,6.67
2019-03-29T06:12:17.067Z,6.8
2019-03-29T06:13:17.212Z,6.75
2019-03-29T06:14:17.113Z,6.8
2019-03-29T06:15:17.041Z,6.79
2019-03-29T06:16:17.108Z,6.85
2019-03-29T06:17:17.066Z,6.94
2019-03-29T06:18:17.049Z,6.97
2019-03-29T06:19:17.016Z,6.97
2019-03-29T06:20:17.316Z,6.97
2019-03-29T06:21:17.112Z,7
2019-03-29T06:22:17.161Z,6.95
2019-03-29T06:23:17.088Z,6.97
2019-03-29T06:24:17.083Z,7
2019-03-29T06:25:17.152Z,6.99
2019-03-29T06:26:17.091Z,7.03
2019-03-29T06:27:17.051Z,7.01
2019-03-29T06:28:17.155Z,7.06
2019-03-29T06:29:17.043Z,7.06
2019-03-29T06:30:17.051Z,7.06
2019-03-29T06:31:16.997Z,7.04
2019-03-29T06:32:17.031Z,7.01
2019-03-29T06:33:17.086Z,7.06
2019-03-29T06:34:17.066Z,7.05
2019-03-29T06:35:17.062Z,7.07
2019-03-29T06:36:17.152Z,7.04
2019-03-29T06:37:17.046Z,7.08
2019-03-29T06:38:17.054Z,7.07
2019-03-29T06:39:17.028Z,7.07
2019-03-29T06:40:17.042Z,7.07
2019-03-29T06:41:17.282Z,7.12
2019-03-29T06:42:17.579Z,7.1
2019-03-29T06:43:17.242Z,7.13
2019-03-29T06:44:17.061Z,7.13
2019-03-29T06:45:17.050Z,7.14
2019-03-29T06:46:17.004Z,7.14
2019-03-29T06:47:17.230Z,7.19
2019-03-29T06:48:17.131Z,7.15
2019-03-29T06:49:17.047Z,7.15
2019-03-29T06:50:17.054Z,7.17
2019-03-29T06:51:17.146Z,7.16
2019-03-29T06:52:18.197Z,7.2
2019-03-29T06:53:17.027Z,7.18
2019-03-29T06:54:17.105Z,7.21
2019-03-29T06:55:19.068Z,7.21
2019-03-29T06:56:17.012Z,7.18
2019-03-29T06:57:17.030Z,7.2
2019-03-29T06:58:16.980Z,7.23
2019-03-29T06:59:17.051Z,7.18
2019-03-29T07:00:16.996Z,7.18
2019-03-29T07:01:17.092Z,7.2
2019-03-29T07:02:17.008Z,7.24
2019-03-29T07:03:17.031Z,7.2
2019-03-29T07:04:17.086Z,7.2
2019-03-29T07:05:17.017Z,7.24
2019-03-29T07:06:17.038Z,7.23
2019-03-29T07:07:17.019Z,7.23
2019-03-29T07:08:17.021Z,7.23
2019-03-29T07:09:16.979Z,7.21
2019-03-29T07:10:16.995Z,7.23
2019-03-29T07:11:18.503Z,7.22
2019-03-29T07:12:17.043Z,7.26
2019-03-29T07:13:17.043Z,7.26
2019-03-29T07:14:16.989Z,7.26
2019-03-29T07:15:17.055Z,7.26
2019-03-29T07:16:17.126Z,7.25
2019-03-29T07:17:17.003Z,7.26
2019-03-29T07:18:16.975Z,7.28
2019-03-29T07:19:16.946Z,7.27
2019-03-29T07:20:18.348Z,7.27
2019-03-29T07:21:22.520Z,7.26
2019-03-29T07:22:16.957Z,7.3
2019-03-29T07:23:17.002Z,7.3
2019-03-29T07:24:17.151Z,7.31
2019-03-29T07:25:17.355Z,7.28
2019-03-29T07:26:16.994Z,7.32
2019-03-29T07:27:16.982Z,7.33
2019-03-29T07:28:16.945Z,7.31
2019-03-29T07:29:16.964Z,7.31
2019-03-29T07:30:16.950Z,7.3
2019-03-29T07:31:17.072Z,7.33
2019-03-29T07:32:16.932Z,7.33
2019-03-29T07:33:16.982Z,7.31
2019-03-29T07:34:17.034Z,7.34
2019-03-29T07:35:16.978Z,7.32
2019-03-29T07:36:17.018Z,7.35
2019-03-29T07:37:17.854Z,7.35
2019-03-29T07:38:16.964Z,7.36
2019-03-29T07:39:17.816Z,7.38
2019-03-29T07:40:17.016Z,7.35
2019-03-29T07:41:32.887Z,7.36
2019-03-29T07:42:16.964Z,7.37
2019-03-29T07:43:16.926Z,7.39
2019-03-29T07:44:16.985Z,7.35
2019-03-29T07:45:16.933Z,7.4
2019-03-29T07:46:17.294Z,7.41
2019-03-29T07:47:16.977Z,7.36
2019-03-29T07:48:16.938Z,7.4
2019-03-29T07:49:17.012Z,7.4
2019-03-29T07:50:19.656Z,7.44
2019-03-29T07:51:16.951Z,7.39
2019-03-29T07:52:16.956Z,7.43
2019-03-29T07:53:16.909Z,7.42
2019-03-29T07:54:17.042Z,7.44
2019-03-29T07:55:17.074Z,7.41
2019-03-29T07:56:16.935Z,7.5
2019-03-29T07:57:18.254Z,7.51
2019-03-29T07:58:16.885Z,7.48
2019-03-29T07:59:18.307Z,7.45
2019-03-29T08:00:21.008Z,7.45
2019-03-29T08:01:16.935Z,7.47
2019-03-29T08:02:17.001Z,7.46
2019-03-29T08:03:16.988Z,7.48
2019-03-29T08:04:16.913Z,7.49
2019-03-29T08:05:18.575Z,7.47
2019-03-29T08:06:16.914Z,7.5
2019-03-29T08:07:31.724Z,7.45
2019-03-29T08:08:35.011Z,7.47
2019-03-29T08:09:23.101Z,7.46
2019-03-29T08:10:32.413Z,7.45
2019-03-29T08:11:28.812Z,7.46
2019-03-29T08:12:17.059Z,7.47
2019-03-29T08:13:16.864Z,7.51
2019-03-29T08:14:16.933Z,7.53
2019-03-29T08:15:16.885Z,7.52
2019-03-29T08:16:16.863Z,7.51
2019-03-29T08:17:16.865Z,7.52
2019-03-29T08:18:16.886Z,7.52
2019-03-29T08:19:18.668Z,7.5
2019-03-29T08:20:45.064Z,7.5
2019-03-29T08:21:16.951Z,7.5
2019-03-29T08:22:16.928Z,7.5
2019-03-29T08:23:17.124Z,7.53
2019-03-29T08:24:16.912Z,7.52
2019-03-29T08:25:16.925Z,7.51
2019-03-29T08:26:16.900Z,7.57
2019-03-29T08:27:16.934Z,7.58
2019-03-29T08:28:16.844Z,7.55
2019-03-29T08:29:17.177Z,7.56
2019-03-29T08:30:16.871Z,7.54
2019-03-29T08:31:17.049Z,7.56
2019-03-29T08:32:17.799Z,7.63
2019-03-29T08:33:16.967Z,7.62
2019-03-29T08:34:16.876Z,7.61
2019-03-29T08:35:16.918Z,7.63
2019-03-29T08:36:16.842Z,7.58
2019-03-29T08:37:16.967Z,7.58
2019-03-29T08:38:16.858Z,7.52
2019-03-29T08:39:28.739Z,7.55
2019-03-29T08:40:16.839Z,7.56
2019-03-29T08:41:16.866Z,7.57
2019-03-29T08:42:19.249Z,7.66
2019-03-29T08:43:16.863Z,7.65
2019-03-29T08:44:16.965Z,7.66
2019-03-29T08:45:16.913Z,7.63
2019-03-29T08:46:16.875Z,7.66
2019-03-29T08:47:16.843Z,7.67
2019-03-29T08:48:16.927Z,7.66
2019-03-29T08:49:17.472Z,7.61
2019-03-29T08:50:16.966Z,7.69
2019-03-29T08:51:17.127Z,7.61
2019-03-29T08:52:16.941Z,7.63
2019-03-29T08:53:16.961Z,7.6
2019-03-29T08:54:16.871Z,7.67
2019-03-29T08:55:18.174Z,7.66
2019-03-29T08:56:16.886Z,7.64
2019-03-29T08:57:16.927Z,7.64
2019-03-29T08:58:16.936Z,7.69
2019-03-29T08:59:18.165Z,7.64
2019-03-29T09:00:18.315Z,7.67
2019-03-29T09:01:20.085Z,7.59
2019-03-29T09:02:16.947Z,7.63
2019-03-29T09:03:16.822Z,7.67
2019-03-29T09:04:16.844Z,7.65
2019-03-29T09:05:16.841Z,7.63
2019-03-29T09:06:16.792Z,7.61
2019-03-29T09:07:16.822Z,7.57
2019-03-29T09:08:16.876Z,7.62
2019-03-29T09:09:16.859Z,7.67
2019-03-29T09:10:16.894Z,7.63
2019-03-29T09:11:16.827Z,7.6
2019-03-29T09:12:16.840Z,7.66
2019-03-29T09:13:16.893Z,7.62
2019-03-29T09:14:16.791Z,7.64
2019-03-29T09:15:16.804Z,7.61
2019-03-29T09:16:16.858Z,7.66
2019-03-29T09:17:16.846Z,7.59
2019-03-29T09:18:16.821Z,7.59
2019-03-29T09:19:16.832Z,7.6
2019-03-29T09:20:16.854Z,7.64
2019-03-29T09:21:16.827Z,7.64
2019-03-29T09:22:17.015Z,7.63
2019-03-29T09:23:16.816Z,7.56
2019-03-29T09:24:22.890Z,7.57
2019-03-29T09:25:16.807Z,7.56
2019-03-29T09:26:16.768Z,7.48
2019-03-29T09:27:16.856Z,7.42
2019-03-29T09:28:16.820Z,7.41
2019-03-29T09:29:17.888Z,7.43
2019-03-29T09:30:16.839Z,7.43
2019-03-29T09:31:16.814Z,7.36
2019-03-29T09:32:16.775Z,7.43
2019-03-29T09:33:16.811Z,7.41
2019-03-29T09:34:16.785Z,7.42
2019-03-29T09:35:16.796Z,7.46
2019-03-29T09:36:16.797Z,7.37
2019-03-29T09:37:16.782Z,7.38
2019-03-29T09:38:16.798Z,7.42
2019-03-29T09:39:16.759Z,7.43
2019-03-29T09:40:16.762Z,7.43
2019-03-29T09:41:16.768Z,7.46
2019-03-29T09:42:30.952Z,7.38
2019-03-29T09:43:16.753Z,7.31
2019-03-29T09:44:18.560Z,7.28
2019-03-29T09:45:16.791Z,7.3
2019-03-29T09:46:16.740Z,7.34
2019-03-29T09:47:16.784Z,7.32
2019-03-29T09:48:16.763Z,7.34
2019-03-29T09:49:17.012Z,7.38
2019-03-29T09:50:16.746Z,7.42
2019-03-29T09:51:16.757Z,7.42
2019-03-29T09:52:16.741Z,7.42
2019-03-29T09:53:16.775Z,7.46
2019-03-29T09:54:20.957Z,7.43
2019-03-29T09:55:19.526Z,7.43
2019-03-29T09:56:19.831Z,7.41
2019-03-29T09:57:16.724Z,7.42
2019-03-29T09:58:17.271Z,7.5
2019-03-29T09:59:16.991Z,7.51
2019-03-29T10:00:24.230Z,7.52
2019-03-29T10:01:21.527Z,7.54
2019-03-29T10:02:16.789Z,7.51
2019-03-29T10:03:16.974Z,7.51
2019-03-29T10:04:16.747Z,7.5
2019-03-29T10:05:20.804Z,7.49
2019-03-29T10:06:16.778Z,7.51
2019-03-29T10:07:16.745Z,7.58
2019-03-29T10:08:16.759Z,7.58
2019-03-29T10:09:16.744Z,7.61
2019-03-29T10:10:16.811Z,7.69
2019-03-29T10:11:16.747Z,7.6
2019-03-29T10:12:16.806Z,7.47
2019-03-29T10:13:16.840Z,7.44
2019-03-29T10:14:17.592Z,7.31
2019-03-29T10:15:16.735Z,7.38
2019-03-29T10:16:16.775Z,7.28
2019-03-29T10:17:16.872Z,7.31
2019-03-29T10:18:16.739Z,7.32
2019-03-29T10:19:16.710Z,7.36
2019-03-29T10:20:16.739Z,7.31
2019-03-29T10:21:17.868Z,7.38
2019-03-29T10:22:16.891Z,7.39
2019-03-29T10:23:17.996Z,7.4
2019-03-29T10:24:16.726Z,7.47
2019-03-29T10:25:20.739Z,7.49
2019-03-29T10:26:16.687Z,7.45
2019-03-29T10:27:19.552Z,7.35
2019-03-29T10:28:16.721Z,7.43
2019-03-29T10:29:18.123Z,7.48
2019-03-29T10:30:16.737Z,7.42
2019-03-29T10:31:33.081Z,7.3
2019-03-29T10:32:16.684Z,7.21
2019-03-29T10:33:16.728Z,7.41
2019-03-29T10:34:16.684Z,7.29
2019-03-29T10:35:16.743Z,7.3
2019-03-29T10:36:16.718Z,7.25
2019-03-29T10:37:16.761Z,7.32
2019-03-29T10:38:18.941Z,7.28
2019-03-29T10:39:16.699Z,7.32
2019-03-29T10:40:16.733Z,7.27
2019-03-29T10:41:16.766Z,7.37
2019-03-29T10:42:16.682Z,7.26
2019-03-29T10:43:16.768Z,7.45
2019-03-29T10:44:16.732Z,7.39
2019-03-29T10:45:16.748Z,7.31
2019-03-29T10:46:16.673Z,7.29
2019-03-29T10:47:16.772Z,7.42
2019-03-29T10:48:18.058Z,7.4
2019-03-29T10:49:16.908Z,7.48
2019-03-29T10:50:16.667Z,7.48
2019-03-29T10:51:16.741Z,7.52
2019-03-29T10:52:16.706Z,7.46
2019-03-29T10:53:16.697Z,7.43
2019-03-29T10:54:16.715Z,7.44
2019-03-29T10:55:16.730Z,7.38
2019-03-29T10:56:18.024Z,7.44
2019-03-29T10:57:16.677Z,7.51
2019-03-29T10:58:16.642Z,7.4
2019-03-29T10:59:28.333Z,7.36
2019-03-29T11:00:16.754Z,7.25
2019-03-29T11:01:16.687Z,7.15
2019-03-29T11:02:16.645Z,7.25
2019-03-29T11:03:16.716Z,7.37
2019-03-29T11:04:16.646Z,7.46
2019-03-29T11:05:16.769Z,7.39
2019-03-29T11:06:16.698Z,7.26
2019-03-29T11:07:16.666Z,7.33
2019-03-29T11:08:16.649Z,7.19
2019-03-29T11:09:16.697Z,7.26
2019-03-29T11:10:16.689Z,7.27
2019-03-29T11:11:16.663Z,7.22
2019-03-29T11:12:16.638Z,7.27
2019-03-29T11:13:16.630Z,7.41
2019-03-29T11:14:16.622Z,7.38
2019-03-29T11:15:16.613Z,7.27
2019-03-29T11:16:16.734Z,7.43
2019-03-29T11:17:16.647Z,7.24
2019-03-29T11:18:16.733Z,7.27
2019-03-29T11:19:16.633Z,7.39
2019-03-29T11:20:19.079Z,7.34
2019-03-29T11:21:16.821Z,7.23
2019-03-29T11:22:16.986Z,7.23
2019-03-29T11:23:16.679Z,7.22
2019-03-29T11:24:16.734Z,7.21
2019-03-29T11:25:16.696Z,7.33
2019-03-29T11:26:16.657Z,7.22
2019-03-29T11:27:16.678Z,7.3
2019-03-29T11:28:16.631Z,7.28
2019-03-29T11:29:16.584Z,7.32
2019-03-29T11:30:16.637Z,7.33
2019-03-29T11:31:16.674Z,7.23
2019-03-29T11:32:16.683Z,7.11
2019-03-29T11:33:16.679Z,7.17
2019-03-29T11:34:16.670Z,7.17
2019-03-29T11:35:16.682Z,7.2
2019-03-29T11:36:16.656Z,7.23
2019-03-29T11:37:16.596Z,7.25
2019-03-29T11:38:16.678Z,7.21
2019-03-29T11:39:16.629Z,7.37
2019-03-29T11:40:16.629Z,7.24
2019-03-29T11:41:16.601Z,7.31
2019-03-29T11:42:16.659Z,7.22
2019-03-29T11:43:27.680Z,7.16
2019-03-29T11:44:16.652Z,7.1
2019-03-29T11:45:16.655Z,7.15
2019-03-29T11:46:16.630Z,7.15
2019-03-29T11:47:16.690Z,7.07
2019-03-29T11:48:16.631Z,7.07
2019-03-29T11:49:16.670Z,7.05
2019-03-29T11:50:16.614Z,7
2019-03-29T11:51:20.327Z,6.9
2019-03-29T11:52:16.623Z,6.9
2019-03-29T11:53:16.619Z,6.84
2019-03-29T11:54:16.644Z,6.75
2019-03-29T11:55:16.799Z,6.76
2019-03-29T11:56:16.600Z,6.76
2019-03-29T11:57:16.666Z,6.84
2019-03-29T11:58:16.612Z,6.8
2019-03-29T11:59:16.614Z,6.93
2019-03-29T12:00:16.621Z,6.9
2019-03-29T12:01:16.597Z,7.05
2019-03-29T12:02:31.994Z,6.98
2019-03-29T12:03:16.608Z,7.04
2019-03-29T12:04:16.631Z,7.02
2019-03-29T12:05:16.596Z,6.92
2019-03-29T12:06:16.639Z,6.93
2019-03-29T12:07:16.577Z,6.93
2019-03-29T12:08:16.585Z,7.09
2019-03-29T12:09:16.615Z,7.02
2019-03-29T12:10:16.590Z,7.1
2019-03-29T12:11:16.629Z,7.09
2019-03-29T12:12:16.562Z,7.02
2019-03-29T12:13:16.622Z,6.79
2019-03-29T12:14:16.562Z,6.82
2019-03-29T12:15:16.558Z,6.9
2019-03-29T12:16:16.560Z,6.86
2019-03-29T12:17:16.585Z,6.77
2019-03-29T12:18:16.583Z,6.82
2019-03-29T12:19:16.553Z,6.91
2019-03-29T12:20:16.600Z,6.92
2019-03-29T12:21:16.578Z,6.97
2019-03-29T12:22:16.583Z,7.06
2019-03-29T12:23:16.547Z,7.07
2019-03-29T12:24:16.541Z,7
2019-03-29T12:25:16.618Z,6.94
2019-03-29T12:26:16.577Z,7
2019-03-29T12:27:16.630Z,6.83
2019-03-29T12:28:16.552Z,7.1
2019-03-29T12:29:16.627Z,6.92
2019-03-29T12:30:32.655Z,7.06
2019-03-29T12:31:16.614Z,7.09
2019-03-29T12:32:16.556Z,7.24
2019-03-29T12:33:16.623Z,7.15
2019-03-29T12:34:16.611Z,7.15
2019-03-29T12:35:16.639Z,7.13
2019-03-29T12:36:16.571Z,6.98
2019-03-29T12:37:17.930Z,6.93
2019-03-29T12:38:16.526Z,6.89
2019-03-29T12:39:16.543Z,6.87
2019-03-29T12:40:16.571Z,6.8
2019-03-29T12:41:16.583Z,6.76
2019-03-29T12:42:16.526Z,6.88
2019-03-29T12:43:16.641Z,6.86
2019-03-29T12:44:16.629Z,6.95
2019-03-29T12:45:16.545Z,6.82
2019-03-29T12:46:16.576Z,6.82
2019-03-29T12:47:16.698Z,6.86
2019-03-29T12:48:16.579Z,6.8
2019-03-29T12:49:16.733Z,6.91
2019-03-29T12:50:16.546Z,6.77
2019-03-29T12:51:16.522Z,6.83
2019-03-29T12:52:16.655Z,6.79
2019-03-29T12:53:16.521Z,6.77
2019-03-29T12:54:16.590Z,6.85
2019-03-29T12:55:16.500Z,6.59
2019-03-29T12:56:16.600Z,6.67
2019-03-29T12:57:16.616Z,6.78
2019-03-29T12:58:16.603Z,6.88
2019-03-29T12:59:16.774Z,6.98
2019-03-29T13:00:16.623Z,7.01
2019-03-29T13:01:16.505Z,6.86
2019-03-29T13:02:16.598Z,6.85
2019-03-29T13:03:16.554Z,6.84
2019-03-29T13:04:16.579Z,6.95
2019-03-29T13:05:16.593Z,6.97
2019-03-29T13:06:16.531Z,6.98
2019-03-29T13:07:16.587Z,6.78
2019-03-29T13:08:16.587Z,6.95
2019-03-29T13:09:16.622Z,6.8
2019-03-29T13:10:16.507Z,6.62
2019-03-29T13:11:17.960Z,6.65
2019-03-29T13:12:16.535Z,6.64
2019-03-29T13:13:16.514Z,6.64
2019-03-29T13:14:16.661Z,6.83
2019-03-29T13:15:16.495Z,6.63
2019-03-29T13:16:18.309Z,6.81
2019-03-29T13:17:16.577Z,6.98
2019-03-29T13:18:16.502Z,6.74
2019-03-29T13:19:16.551Z,6.68
2019-03-29T13:20:16.546Z,6.72
2019-03-29T13:21:16.747Z,6.87